Impacts METAR Board
IDs:

KGTU - Georgetown Muni, TX, US

Updated at: 0100 UTC 01 Nov 2020
Potential Impact None Slight Moderate High
Time 31/13Z 31/14Z 31/15Z 31/16Z 31/17Z 31/18Z 31/19Z 31/20Z 31/21Z 31/22Z 31/23Z 01/00Z 01/01Z
Temp37 45 55 63 66 69 71 73 75 75 74 69 59
Dewpt34 40 40 41 40 39 39 40 40 40 40 40 43
Altim30.24 30.24 30.25 30.25 30.24 30.21 30.18 30.14 30.11 30.10 30.11 30.12 30.14
VIS10 10 10 10 10 10 10 10 10 10 10 10 10
CIG-- -- -- -- -- -- -- -- -- -- -- -- --
CoverCLRCLRCLRCLRCLRCLRCLRCLRCLRCLRCLRCLRCLR
FltCatVFRVFRVFRVFRVFRVFRVFRVFRVFRVFRVFRVFRVFR
WX--------------------------
WDir001701902002102001601801801801600
WSpd0 0 3 9 8 10 8 9 6 10 8 3 0
WGst-- -- -- -- -- -- -- -- -- -- -- -- --
Raw hourly METARs
KGTU 311256Z 00000KT 10SM CLR 03/01 A3024 RMK AO2 SLP242 T00280011
KGTU 311356Z 00000KT 10SM CLR 07/04 A3024 RMK AO2 SLP244 T00720044
KGTU 311456Z 17003KT 10SM CLR 13/04 A3025 RMK AO2 SLP248 T01280044 53007
KGTU 311556Z 19009KT 10SM CLR 17/05 A3025 RMK AO2 SLP244 T01720050
KGTU 311656Z 20008KT 10SM CLR 19/04 A3024 RMK AO2 SLP240 T01890044
KGTU 311756Z 21010KT 10SM CLR 21/04 A3021 RMK AO2 SLP230 T02060039 10206 20028 58014
KGTU 311856Z 20008KT 10SM CLR 22/04 A3018 RMK AO2 SLP218 T02170039
KGTU 311956Z 16009KT 10SM CLR 23/04 A3014 RMK AO2 SLP205 T02280044
KGTU 312056Z 18006KT 10SM CLR 24/04 A3011 RMK AO2 SLP197 T02390044 56033
KGTU 312156Z 18010KT 10SM CLR 24/04 A3010 RMK AO2 SLP192 T02390044
KGTU 312256Z 18008KT 10SM CLR 23/04 A3011 RMK AO2 SLP196 T02330044
KGTU 312356Z 16003KT 10SM CLR 21/04 A3012 RMK AO2 SLP200 T02060044 10239 20206 53002
KGTU 010056Z 00000KT 10SM CLR 15/06 A3014 RMK AO2 SLP207 T01500061